Airfield :
LOGIN :

Register | Disclaimer

   EN    FR    IT 

 










Legend :    VFR   Marginal VFR   IFR   Intensive IFR   Very Intensive IFR
Visi :
Ceiling :
>= 8 km
>= 3000ft
5 to 8 km
1000 to 3000 ft
1500m to 5 km
500 to 1000 ft
800 to 1500m
200 to 500 ft
< 800m
< 200 ft
Symbols :   Thunderstorms  Fog  Heavy snow  Heavy precipitations  Wind > 20 kt
SIGMETs :     Misc.  Thunderstorms  Icing  Turbulence  Mountain Waves  Volcanic Ashes







- Airport Elevation : 239 ft
- IATA code : VRN


LIPX - Villafranca Int. Verona

CURRENT METAR :
  • 161320Z 25007KT 220V290 7000 NSC 15/02 Q1030

EXPIRED METARs :
  • 161250Z 25008KT 220V280 8000 NSC 14/02 Q1030
  • 161220Z 26006KT 230V290 CAVOK 14/00 Q1031
  • 161150Z 26009KT CAVOK 14/M01 Q1031
  • 161120Z 23007KT CAVOK 14/M00 Q1031
  • 161050Z 22005KT 160V260 CAVOK 13/01 Q1032

TAF TAF LIPX
Valid from the 16 at 12:00 until the 16 at 21:00 UTC


161100Z 1612/1621 VRB05KT CAVOK
No reported NOTAMs for that airfield.



MET'MAP, your aeronautical weather chart ! - Copyright ORBIFLY December 2007 - Disclaimer

ORBIFLY MET'MAP TEAM :

Programming & Development : Alexandra Zaïnal
Concept & Development : Baudouin d'Aumeries
Co-Development & Prog : Marc-Olivier Méhu
Technical & hardware support : Manuel Goepfert

Contact : metmap@orbifly.com




SOURCES & CREDITS :

   NOAA